sensor_id;sensor_type;location;lat;lon;timestamp;temperature;humidity
53310;DHT22;39197;53.200;5.792;2023-02-12T00:02:16;4.60;99.90
53310;DHT22;39197;53.200;5.792;2023-02-12T00:04:42;4.60;99.90
53310;DHT22;39197;53.200;5.792;2023-02-12T00:07:07;4.60;99.90
53310;DHT22;39197;53.200;5.792;2023-02-12T00:09:33;4.60;99.90
53310;DHT22;39197;53.200;5.792;2023-02-12T00:11:59;4.60;99.90
53310;DHT22;39197;53.200;5.792;2023-02-12T00:14:24;4.60;99.90
53310;DHT22;39197;53.200;5.792;2023-02-12T00:16:50;4.60;99.90
53310;DHT22;39197;53.200;5.792;2023-02-12T00:19:15;4.60;99.90
53310;DHT22;39197;53.200;5.792;2023-02-12T00:21:41;4.60;99.90
53310;DHT22;39197;53.200;5.792;2023-02-12T00:24:07;4.60;99.90
53310;DHT22;39197;53.200;5.792;2023-02-12T00:26:32;4.60;99.90
53310;DHT22;39197;53.200;5.792;2023-02-12T00:28:59;4.60;99.90
53310;DHT22;39197;53.200;5.792;2023-02-12T00:31:27;4.70;99.90
53310;DHT22;39197;53.200;5.792;2023-02-12T00:33:53;4.60;99.90
53310;DHT22;39197;53.200;5.792;2023-02-12T00:36:21;4.60;99.90
53310;DHT22;39197;53.200;5.792;2023-02-12T00:38:49;4.70;99.90
53310;DHT22;39197;53.200;5.792;2023-02-12T00:41:15;4.70;99.90
53310;DHT22;39197;53.200;5.792;2023-02-12T00:43:40;4.60;99.90
53310;DHT22;39197;53.200;5.792;2023-02-12T00:46:06;4.60;99.90
53310;DHT22;39197;53.200;5.792;2023-02-12T00:48:33;4.70;99.90
53310;DHT22;39197;53.200;5.792;2023-02-12T00:50:58;4.60;99.90
53310;DHT22;39197;53.200;5.792;2023-02-12T00:53:24;4.60;99.90
53310;DHT22;39197;53.200;5.792;2023-02-12T00:55:50;4.60;99.90
53310;DHT22;39197;53.200;5.792;2023-02-12T00:58:15;4.60;99.90
53310;DHT22;39197;53.200;5.792;2023-02-12T01:00:42;4.60;99.90
53310;DHT22;39197;53.200;5.792;2023-02-12T01:03:08;4.70;99.90
53310;DHT22;39197;53.200;5.792;2023-02-12T01:05:34;4.80;99.90
53310;DHT22;39197;53.200;5.792;2023-02-12T01:08:00;4.70;99.90
53310;DHT22;39197;53.200;5.792;2023-02-12T01:10:26;4.80;99.90
53310;DHT22;39197;53.200;5.792;2023-02-12T01:12:52;4.80;99.90
53310;DHT22;39197;53.200;5.792;2023-02-12T01:15:18;4.80;99.90
53310;DHT22;39197;53.200;5.792;2023-02-12T01:17:44;4.80;99.90
53310;DHT22;39197;53.200;5.792;2023-02-12T01:20:15;4.90;99.90
53310;DHT22;39197;53.200;5.792;2023-02-12T01:22:44;4.80;99.90
53310;DHT22;39197;53.200;5.792;2023-02-12T01:25:09;4.80;99.90
53310;DHT22;39197;53.200;5.792;2023-02-12T01:27:35;4.80;99.90
53310;DHT22;39197;53.200;5.792;2023-02-12T01:30:01;4.80;99.90
53310;DHT22;39197;53.200;5.792;2023-02-12T01:32:27;4.80;99.90
53310;DHT22;39197;53.200;5.792;2023-02-12T01:34:53;4.80;99.90
53310;DHT22;39197;53.200;5.792;2023-02-12T01:37:18;4.80;99.90
53310;DHT22;39197;53.200;5.792;2023-02-12T01:39:44;4.80;99.90
53310;DHT22;39197;53.200;5.792;2023-02-12T01:42:14;4.80;99.90
53310;DHT22;39197;53.200;5.792;2023-02-12T01:47:38;4.70;99.90
53310;DHT22;39197;53.200;5.792;2023-02-12T01:50:06;4.70;99.90
53310;DHT22;39197;53.200;5.792;2023-02-12T01:52:35;4.70;99.90
53310;DHT22;39197;53.200;5.792;2023-02-12T01:55:04;4.60;99.90
53310;DHT22;39197;53.200;5.792;2023-02-12T01:57:34;4.70;99.90
53310;DHT22;39197;53.200;5.792;2023-02-12T02:00:04;4.70;99.90
53310;DHT22;39197;53.200;5.792;2023-02-12T02:02:31;4.70;99.90
53310;DHT22;39197;53.200;5.792;2023-02-12T02:04:59;4.70;99.90
53310;DHT22;39197;53.200;5.792;2023-02-12T02:07:27;4.60;99.90
53310;DHT22;39197;53.200;5.792;2023-02-12T02:09:54;4.60;99.90
53310;DHT22;39197;53.200;5.792;2023-02-12T02:12:20;4.60;99.90
53310;DHT22;39197;53.200;5.792;2023-02-12T02:15:05;4.70;99.90
53310;DHT22;39197;53.200;5.792;2023-02-12T02:26:06;4.60;99.90
53310;DHT22;39197;53.200;5.792;2023-02-12T02:31:40;4.60;99.90
53310;DHT22;39197;53.200;5.792;2023-02-12T02:34:39;4.60;99.90
53310;DHT22;39197;53.200;5.792;2023-02-12T02:37:18;4.70;99.90
53310;DHT22;39197;53.200;5.792;2023-02-12T02:39:53;4.60;99.90
53310;DHT22;39197;53.200;5.792;2023-02-12T02:42:34;4.60;99.90
53310;DHT22;39197;53.200;5.792;2023-02-12T02:45:09;4.70;99.90
53310;DHT22;39197;53.200;5.792;2023-02-12T02:47:42;4.60;99.90
53310;DHT22;39197;53.200;5.792;2023-02-12T02:50:12;4.60;99.90
53310;DHT22;39197;53.200;5.792;2023-02-12T02:53:05;4.60;99.90
53310;DHT22;39197;53.200;5.792;2023-02-12T02:55:37;4.60;99.90
53310;DHT22;39197;53.200;5.792;2023-02-12T02:58:17;4.60;99.90
53310;DHT22;39197;53.200;5.792;2023-02-12T03:00:47;4.60;99.90
53310;DHT22;39197;53.200;5.792;2023-02-12T03:03:31;4.60;99.90
53310;DHT22;39197;53.200;5.792;2023-02-12T03:06:03;4.70;99.90
53310;DHT22;39197;53.200;5.792;2023-02-12T03:08:35;4.70;99.90
53310;DHT22;39197;53.200;5.792;2023-02-12T03:11:09;4.70;99.90
53310;DHT22;39197;53.200;5.792;2023-02-12T03:13:44;4.70;99.90
53310;DHT22;39197;53.200;5.792;2023-02-12T03:19:00;4.70;99.90
53310;DHT22;39197;53.200;5.792;2023-02-12T03:21:36;4.70;99.90
53310;DHT22;39197;53.200;5.792;2023-02-12T03:24:18;4.70;99.90
53310;DHT22;39197;53.200;5.792;2023-02-12T03:26:53;4.60;99.90
53310;DHT22;39197;53.200;5.792;2023-02-12T03:29:20;4.70;99.90
53310;DHT22;39197;53.200;5.792;2023-02-12T03:31:54;4.70;99.90
53310;DHT22;39197;53.200;5.792;2023-02-12T03:34:48;4.70;99.90
53310;DHT22;39197;53.200;5.792;2023-02-12T03:37:20;4.70;99.90
53310;DHT22;39197;53.200;5.792;2023-02-12T03:40:05;4.70;99.90
53310;DHT22;39197;53.200;5.792;2023-02-12T03:42:55;4.60;99.90
53310;DHT22;39197;53.200;5.792;2023-02-12T03:48:32;4.50;99.90
53310;DHT22;39197;53.200;5.792;2023-02-12T03:51:04;4.50;99.90
53310;DHT22;39197;53.200;5.792;2023-02-12T03:53:34;4.50;99.90
53310;DHT22;39197;53.200;5.792;2023-02-12T03:56:11;4.40;99.90
53310;DHT22;39197;53.200;5.792;2023-02-12T03:58:38;4.50;99.90
53310;DHT22;39197;53.200;5.792;2023-02-12T04:01:04;4.40;99.90
53310;DHT22;39197;53.200;5.792;2023-02-12T04:03:30;4.40;99.90
53310;DHT22;39197;53.200;5.792;2023-02-12T04:05:56;4.30;99.90
53310;DHT22;39197;53.200;5.792;2023-02-12T04:08:22;4.40;99.90
53310;DHT22;39197;53.200;5.792;2023-02-12T04:11:09;4.40;99.90
53310;DHT22;39197;53.200;5.792;2023-02-12T04:16:45;4.40;99.90
53310;DHT22;39197;53.200;5.792;2023-02-12T04:19:15;4.40;99.90
53310;DHT22;39197;53.200;5.792;2023-02-12T04:22:03;4.40;99.90
53310;DHT22;39197;53.200;5.792;2023-02-12T04:30:17;4.40;99.90
53310;DHT22;39197;53.200;5.792;2023-02-12T04:32:52;4.40;99.90
53310;DHT22;39197;53.200;5.792;2023-02-12T04:35:24;4.40;99.90
53310;DHT22;39197;53.200;5.792;2023-02-12T04:37:56;4.40;99.90
53310;DHT22;39197;53.200;5.792;2023-02-12T04:40:23;4.30;99.90
53310;DHT22;39197;53.200;5.792;2023-02-12T04:42:51;4.30;99.90
53310;DHT22;39197;53.200;5.792;2023-02-12T04:45:29;4.20;99.90
53310;DHT22;39197;53.200;5.792;2023-02-12T04:47:55;4.20;99.90
53310;DHT22;39197;53.200;5.792;2023-02-12T04:50:21;4.10;99.90
53310;DHT22;39197;53.200;5.792;2023-02-12T04:52:47;4.10;99.90
53310;DHT22;39197;53.200;5.792;2023-02-12T04:55:13;4.10;99.90
53310;DHT22;39197;53.200;5.792;2023-02-12T04:57:39;4.10;99.90
53310;DHT22;39197;53.200;5.792;2023-02-12T05:00:06;4.00;99.90
53310;DHT22;39197;53.200;5.792;2023-02-12T05:02:33;4.10;99.90
53310;DHT22;39197;53.200;5.792;2023-02-12T05:04:59;4.00;99.90
53310;DHT22;39197;53.200;5.792;2023-02-12T05:07:24;4.10;99.90
53310;DHT22;39197;53.200;5.792;2023-02-12T05:09:50;4.10;99.90
53310;DHT22;39197;53.200;5.792;2023-02-12T05:12:16;4.20;99.90
53310;DHT22;39197;53.200;5.792;2023-02-12T05:14:41;4.20;99.90
53310;DHT22;39197;53.200;5.792;2023-02-12T05:17:07;4.20;99.90
53310;DHT22;39197;53.200;5.792;2023-02-12T05:19:32;4.10;99.90
53310;DHT22;39197;53.200;5.792;2023-02-12T05:21:58;4.00;99.90
53310;DHT22;39197;53.200;5.792;2023-02-12T05:24:24;3.90;99.90
53310;DHT22;39197;53.200;5.792;2023-02-12T05:26:50;3.80;99.90
53310;DHT22;39197;53.200;5.792;2023-02-12T05:29:16;3.90;99.90
53310;DHT22;39197;53.200;5.792;2023-02-12T05:31:42;3.90;99.90
53310;DHT22;39197;53.200;5.792;2023-02-12T05:34:10;3.90;99.90
53310;DHT22;39197;53.200;5.792;2023-02-12T05:36:36;3.80;99.90
53310;DHT22;39197;53.200;5.792;2023-02-12T05:39:01;3.80;99.90
53310;DHT22;39197;53.200;5.792;2023-02-12T05:41:27;3.90;99.90
53310;DHT22;39197;53.200;5.792;2023-02-12T05:43:53;3.90;99.90
53310;DHT22;39197;53.200;5.792;2023-02-12T05:46:20;4.00;99.90
53310;DHT22;39197;53.200;5.792;2023-02-12T05:48:46;4.00;99.90
53310;DHT22;39197;53.200;5.792;2023-02-12T05:51:17;4.10;99.90
53310;DHT22;39197;53.200;5.792;2023-02-12T05:53:44;4.10;99.90
53310;DHT22;39197;53.200;5.792;2023-02-12T05:58:44;4.10;99.90
53310;DHT22;39197;53.200;5.792;2023-02-12T06:01:17;4.20;99.90
53310;DHT22;39197;53.200;5.792;2023-02-12T06:03:43;4.20;99.90
53310;DHT22;39197;53.200;5.792;2023-02-12T06:06:09;4.30;99.90
53310;DHT22;39197;53.200;5.792;2023-02-12T06:08:35;4.30;99.90
53310;DHT22;39197;53.200;5.792;2023-02-12T06:11:03;4.40;99.90
53310;DHT22;39197;53.200;5.792;2023-02-12T06:13:29;4.50;99.90
53310;DHT22;39197;53.200;5.792;2023-02-12T06:15:55;4.50;99.90
53310;DHT22;39197;53.200;5.792;2023-02-12T06:18:21;4.60;99.90
53310;DHT22;39197;53.200;5.792;2023-02-12T06:20:47;4.60;99.90
53310;DHT22;39197;53.200;5.792;2023-02-12T06:23:13;4.60;99.90
53310;DHT22;39197;53.200;5.792;2023-02-12T06:25:38;4.60;99.90
53310;DHT22;39197;53.200;5.792;2023-02-12T06:28:04;4.60;99.90
53310;DHT22;39197;53.200;5.792;2023-02-12T06:30:29;4.60;99.90
53310;DHT22;39197;53.200;5.792;2023-02-12T06:32:56;4.60;99.90
53310;DHT22;39197;53.200;5.792;2023-02-12T06:35:22;4.50;99.90
53310;DHT22;39197;53.200;5.792;2023-02-12T06:37:47;4.50;99.90
53310;DHT22;39197;53.200;5.792;2023-02-12T06:40:13;4.40;99.90
53310;DHT22;39197;53.200;5.792;2023-02-12T06:42:39;4.50;99.90
53310;DHT22;39197;53.200;5.792;2023-02-12T06:45:04;4.50;99.90
53310;DHT22;39197;53.200;5.792;2023-02-12T06:47:30;4.60;99.90
53310;DHT22;39197;53.200;5.792;2023-02-12T06:49:55;4.70;99.90
53310;DHT22;39197;53.200;5.792;2023-02-12T06:52:21;4.80;99.90
53310;DHT22;39197;53.200;5.792;2023-02-12T06:54:47;4.80;99.90
53310;DHT22;39197;53.200;5.792;2023-02-12T06:57:12;4.80;99.90
53310;DHT22;39197;53.200;5.792;2023-02-12T06:59:38;4.90;99.90
53310;DHT22;39197;53.200;5.792;2023-02-12T07:02:03;5.00;99.90
53310;DHT22;39197;53.200;5.792;2023-02-12T07:04:29;5.00;99.90
53310;DHT22;39197;53.200;5.792;2023-02-12T07:06:55;5.00;99.90
53310;DHT22;39197;53.200;5.792;2023-02-12T07:09:20;5.00;99.90
53310;DHT22;39197;53.200;5.792;2023-02-12T07:11:46;5.00;99.90
53310;DHT22;39197;53.200;5.792;2023-02-12T07:14:14;5.10;99.90
53310;DHT22;39197;53.200;5.792;2023-02-12T07:16:40;5.10;99.90
53310;DHT22;39197;53.200;5.792;2023-02-12T07:19:05;5.20;99.90
53310;DHT22;39197;53.200;5.792;2023-02-12T07:21:31;5.10;99.90
53310;DHT22;39197;53.200;5.792;2023-02-12T07:23:57;5.20;99.90
53310;DHT22;39197;53.200;5.792;2023-02-12T07:26:23;5.20;99.90
53310;DHT22;39197;53.200;5.792;2023-02-12T07:28:49;5.30;99.90
53310;DHT22;39197;53.200;5.792;2023-02-12T07:31:20;5.40;99.90
53310;DHT22;39197;53.200;5.792;2023-02-12T07:33:46;5.40;99.90
53310;DHT22;39197;53.200;5.792;2023-02-12T07:36:15;5.40;99.90
53310;DHT22;39197;53.200;5.792;2023-02-12T07:38:41;5.40;99.90
53310;DHT22;39197;53.200;5.792;2023-02-12T07:41:14;5.50;99.90
53310;DHT22;39197;53.200;5.792;2023-02-12T07:43:41;5.50;99.90
53310;DHT22;39197;53.200;5.792;2023-02-12T07:48:38;5.60;99.90
53310;DHT22;39197;53.200;5.792;2023-02-12T07:51:05;5.70;99.90
53310;DHT22;39197;53.200;5.792;2023-02-12T07:53:31;5.70;99.90
53310;DHT22;39197;53.200;5.792;2023-02-12T07:56:06;5.80;99.90
53310;DHT22;39197;53.200;5.792;2023-02-12T07:58:32;5.80;99.90
53310;DHT22;39197;53.200;5.792;2023-02-12T08:00:58;5.80;99.90
53310;DHT22;39197;53.200;5.792;2023-02-12T08:03:23;5.80;99.90
53310;DHT22;39197;53.200;5.792;2023-02-12T08:05:49;5.90;99.90
53310;DHT22;39197;53.200;5.792;2023-02-12T08:08:14;5.90;99.90
53310;DHT22;39197;53.200;5.792;2023-02-12T08:10:40;5.90;99.90
53310;DHT22;39197;53.200;5.792;2023-02-12T08:13:06;6.00;99.90
53310;DHT22;39197;53.200;5.792;2023-02-12T08:15:31;6.00;99.90
53310;DHT22;39197;53.200;5.792;2023-02-12T08:17:57;6.00;99.90
53310;DHT22;39197;53.200;5.792;2023-02-12T08:20:23;6.00;99.90
53310;DHT22;39197;53.200;5.792;2023-02-12T08:22:49;6.00;99.90
53310;DHT22;39197;53.200;5.792;2023-02-12T08:25:15;6.00;99.90
53310;DHT22;39197;53.200;5.792;2023-02-12T08:27:40;6.10;99.90
53310;DHT22;39197;53.200;5.792;2023-02-12T08:30:07;6.10;99.90
53310;DHT22;39197;53.200;5.792;2023-02-12T08:32:32;6.20;99.90
53310;DHT22;39197;53.200;5.792;2023-02-12T08:34:58;6.20;99.90
53310;DHT22;39197;53.200;5.792;2023-02-12T08:37:23;6.30;99.90
53310;DHT22;39197;53.200;5.792;2023-02-12T08:39:49;6.40;99.90
53310;DHT22;39197;53.200;5.792;2023-02-12T08:42:15;6.60;99.90
53310;DHT22;39197;53.200;5.792;2023-02-12T08:44:41;6.70;99.90
53310;DHT22;39197;53.200;5.792;2023-02-12T08:47:07;6.80;99.90
53310;DHT22;39197;53.200;5.792;2023-02-12T08:49:34;6.90;99.90
53310;DHT22;39197;53.200;5.792;2023-02-12T08:52:00;7.00;99.90
53310;DHT22;39197;53.200;5.792;2023-02-12T08:54:28;7.20;99.90
53310;DHT22;39197;53.200;5.792;2023-02-12T08:56:59;7.40;99.90
53310;DHT22;39197;53.200;5.792;2023-02-12T08:59:25;7.60;99.90
53310;DHT22;39197;53.200;5.792;2023-02-12T09:01:51;7.70;99.90
53310;DHT22;39197;53.200;5.792;2023-02-12T09:04:20;7.80;99.90
53310;DHT22;39197;53.200;5.792;2023-02-12T09:06:46;8.00;99.90
53310;DHT22;39197;53.200;5.792;2023-02-12T09:09:13;8.00;99.90
53310;DHT22;39197;53.200;5.792;2023-02-12T09:11:39;7.90;99.90
53310;DHT22;39197;53.200;5.792;2023-02-12T09:14:07;7.90;99.90
53310;DHT22;39197;53.200;5.792;2023-02-12T09:16:35;7.90;99.90
53310;DHT22;39197;53.200;5.792;2023-02-12T09:19:02;7.90;99.90
53310;DHT22;39197;53.200;5.792;2023-02-12T09:21:27;7.90;99.90
53310;DHT22;39197;53.200;5.792;2023-02-12T09:23:53;7.90;99.90
53310;DHT22;39197;53.200;5.792;2023-02-12T09:26:22;7.90;99.90
53310;DHT22;39197;53.200;5.792;2023-02-12T09:28:50;7.80;99.90
53310;DHT22;39197;53.200;5.792;2023-02-12T09:31:18;8.00;99.90
53310;DHT22;39197;53.200;5.792;2023-02-12T09:33:45;8.00;99.90
53310;DHT22;39197;53.200;5.792;2023-02-12T09:36:13;8.10;99.90
53310;DHT22;39197;53.200;5.792;2023-02-12T09:38:39;8.10;99.90
53310;DHT22;39197;53.200;5.792;2023-02-12T09:41:17;8.30;99.90
53310;DHT22;39197;53.200;5.792;2023-02-12T09:44:16;8.40;99.90
53310;DHT22;39197;53.200;5.792;2023-02-12T09:49:55;8.40;99.90
53310;DHT22;39197;53.200;5.792;2023-02-12T09:52:26;8.40;99.90
53310;DHT22;39197;53.200;5.792;2023-02-12T09:54:53;8.40;99.90
53310;DHT22;39197;53.200;5.792;2023-02-12T10:00:09;8.40;99.90
53310;DHT22;39197;53.200;5.792;2023-02-12T10:02:37;8.50;99.90
53310;DHT22;39197;53.200;5.792;2023-02-12T10:05:04;8.50;99.90
53310;DHT22;39197;53.200;5.792;2023-02-12T10:13:12;8.60;99.90
53310;DHT22;39197;53.200;5.792;2023-02-12T10:15:51;8.70;99.90
53310;DHT22;39197;53.200;5.792;2023-02-12T10:18:41;8.80;99.90
53310;DHT22;39197;53.200;5.792;2023-02-12T10:21:39;8.80;99.90
53310;DHT22;39197;53.200;5.792;2023-02-12T10:27:12;8.70;99.90
53310;DHT22;39197;53.200;5.792;2023-02-12T10:29:39;8.80;99.90
53310;DHT22;39197;53.200;5.792;2023-02-12T10:32:24;8.70;99.90
53310;DHT22;39197;53.200;5.792;2023-02-12T10:34:52;8.70;99.90
53310;DHT22;39197;53.200;5.792;2023-02-12T10:37:34;8.60;99.90
53310;DHT22;39197;53.200;5.792;2023-02-12T10:40:22;8.60;99.90
53310;DHT22;39197;53.200;5.792;2023-02-12T10:42:51;8.60;99.90
53310;DHT22;39197;53.200;5.792;2023-02-12T10:45:20;8.50;99.90
53310;DHT22;39197;53.200;5.792;2023-02-12T10:47:50;8.50;99.90
53310;DHT22;39197;53.200;5.792;2023-02-12T10:50:24;8.50;99.90
53310;DHT22;39197;53.200;5.792;2023-02-12T10:52:56;8.40;99.90
53310;DHT22;39197;53.200;5.792;2023-02-12T10:55:28;8.50;99.90
53310;DHT22;39197;53.200;5.792;2023-02-12T10:57:57;8.50;99.90
53310;DHT22;39197;53.200;5.792;2023-02-12T11:00:33;8.40;99.90
53310;DHT22;39197;53.200;5.792;2023-02-12T11:05:38;8.40;99.90
53310;DHT22;39197;53.200;5.792;2023-02-12T11:08:05;8.30;99.90
53310;DHT22;39197;53.200;5.792;2023-02-12T11:10:39;8.40;99.90
53310;DHT22;39197;53.200;5.792;2023-02-12T11:13:06;8.40;99.90
53310;DHT22;39197;53.200;5.792;2023-02-12T11:15:47;8.40;99.90
53310;DHT22;39197;53.200;5.792;2023-02-12T11:18:33;8.40;99.90
53310;DHT22;39197;53.200;5.792;2023-02-12T11:21:04;8.40;99.90
53310;DHT22;39197;53.200;5.792;2023-02-12T11:23:43;8.40;99.90
53310;DHT22;39197;53.200;5.792;2023-02-12T11:28:59;8.50;99.90
53310;DHT22;39197;53.200;5.792;2023-02-12T11:31:32;8.40;99.90
53310;DHT22;39197;53.200;5.792;2023-02-12T11:34:16;8.50;99.90
53310;DHT22;39197;53.200;5.792;2023-02-12T11:36:49;8.50;99.90
53310;DHT22;39197;53.200;5.792;2023-02-12T11:39:17;8.50;99.90
53310;DHT22;39197;53.200;5.792;2023-02-12T11:41:43;8.50;99.90
53310;DHT22;39197;53.200;5.792;2023-02-12T11:44:12;8.50;99.90
53310;DHT22;39197;53.200;5.792;2023-02-12T11:46:47;8.50;99.90
53310;DHT22;39197;53.200;5.792;2023-02-12T11:49:22;8.50;99.90
53310;DHT22;39197;53.200;5.792;2023-02-12T11:51:48;8.60;99.90
53310;DHT22;39197;53.200;5.792;2023-02-12T11:54:21;8.60;99.90
53310;DHT22;39197;53.200;5.792;2023-02-12T11:56:47;8.60;99.90
53310;DHT22;39197;53.200;5.792;2023-02-12T11:59:32;8.70;99.90
53310;DHT22;39197;53.200;5.792;2023-02-12T12:02:04;8.60;99.90
53310;DHT22;39197;53.200;5.792;2023-02-12T12:04:34;8.40;99.90
53310;DHT22;39197;53.200;5.792;2023-02-12T12:07:23;8.50;99.90
53310;DHT22;39197;53.200;5.792;2023-02-12T12:12:58;8.50;99.90
53310;DHT22;39197;53.200;5.792;2023-02-12T12:15:27;8.50;99.90
53310;DHT22;39197;53.200;5.792;2023-02-12T12:23:56;8.60;99.90
53310;DHT22;39197;53.200;5.792;2023-02-12T12:26:25;8.60;99.90
53310;DHT22;39197;53.200;5.792;2023-02-12T12:31:45;8.60;99.90
53310;DHT22;39197;53.200;5.792;2023-02-12T12:34:16;8.60;99.90
53310;DHT22;39197;53.200;5.792;2023-02-12T12:45:18;8.60;99.90
53310;DHT22;39197;53.200;5.792;2023-02-12T12:56:30;8.60;99.90
53310;DHT22;39197;53.200;5.792;2023-02-12T13:08:12;8.70;99.90
53310;DHT22;39197;53.200;5.792;2023-02-12T13:10:53;8.70;99.90
53310;DHT22;39197;53.200;5.792;2023-02-12T13:13:33;8.70;99.90
53310;DHT22;39197;53.200;5.792;2023-02-12T13:22:03;8.70;99.90
53310;DHT22;39197;53.200;5.792;2023-02-12T13:24:54;8.70;99.90
53310;DHT22;39197;53.200;5.792;2023-02-12T13:27:29;8.70;99.90
53310;DHT22;39197;53.200;5.792;2023-02-12T13:30:32;8.70;99.90
53310;DHT22;39197;53.200;5.792;2023-02-12T13:33:23;8.60;99.90
53310;DHT22;39197;53.200;5.792;2023-02-12T13:35:53;8.70;99.90
53310;DHT22;39197;53.200;5.792;2023-02-12T13:38:33;8.60;99.90
53310;DHT22;39197;53.200;5.792;2023-02-12T13:41:06;8.50;99.90
53310;DHT22;39197;53.200;5.792;2023-02-12T13:43:42;8.60;99.90
53310;DHT22;39197;53.200;5.792;2023-02-12T13:46:19;8.60;99.90
53310;DHT22;39197;53.200;5.792;2023-02-12T13:52:03;8.60;99.90
53310;DHT22;39197;53.200;5.792;2023-02-12T13:57:13;8.60;99.90
53310;DHT22;39197;53.200;5.792;2023-02-12T13:59:53;8.60;99.90
53310;DHT22;39197;53.200;5.792;2023-02-12T14:05:22;8.60;99.90
53310;DHT22;39197;53.200;5.792;2023-02-12T14:07:56;8.60;99.90
53310;DHT22;39197;53.200;5.792;2023-02-12T14:10:41;8.70;99.90
53310;DHT22;39197;53.200;5.792;2023-02-12T14:13:14;8.60;99.90
53310;DHT22;39197;53.200;5.792;2023-02-12T14:15:44;8.50;99.90
53310;DHT22;39197;53.200;5.792;2023-02-12T14:23:34;8.60;99.90
53310;DHT22;39197;53.200;5.792;2023-02-12T14:41:36;8.50;99.90
53310;DHT22;39197;53.200;5.792;2023-02-12T14:46:53;8.50;99.90
53310;DHT22;39197;53.200;5.792;2023-02-12T14:57:28;8.30;99.90
53310;DHT22;39197;53.200;5.792;2023-02-12T15:00:00;8.30;99.90
53310;DHT22;39197;53.200;5.792;2023-02-12T15:02:33;8.20;99.90
53310;DHT22;39197;53.200;5.792;2023-02-12T15:05:04;8.30;99.90
53310;DHT22;39197;53.200;5.792;2023-02-12T15:07:40;8.20;99.90
53310;DHT22;39197;53.200;5.792;2023-02-12T15:10:14;8.30;99.90
53310;DHT22;39197;53.200;5.792;2023-02-12T15:12:53;8.20;99.90
53310;DHT22;39197;53.200;5.792;2023-02-12T15:15:26;8.20;99.90
53310;DHT22;39197;53.200;5.792;2023-02-12T15:18:44;8.20;99.90
53310;DHT22;39197;53.200;5.792;2023-02-12T15:21:03;8.20;99.90
53310;DHT22;39197;53.200;5.792;2023-02-12T15:23:33;8.20;99.90
53310;DHT22;39197;53.200;5.792;2023-02-12T15:26:00;8.10;99.90
53310;DHT22;39197;53.200;5.792;2023-02-12T15:28:34;8.20;99.90
53310;DHT22;39197;53.200;5.792;2023-02-12T15:31:03;8.20;99.90
53310;DHT22;39197;53.200;5.792;2023-02-12T15:33:33;8.10;99.90
53310;DHT22;39197;53.200;5.792;2023-02-12T15:36:01;8.10;99.90
53310;DHT22;39197;53.200;5.792;2023-02-12T15:38:39;8.10;99.90
53310;DHT22;39197;53.200;5.792;2023-02-12T15:43:55;8.10;99.90
53310;DHT22;39197;53.200;5.792;2023-02-12T15:46:21;8.10;99.90
53310;DHT22;39197;53.200;5.792;2023-02-12T15:48:46;8.10;99.90
53310;DHT22;39197;53.200;5.792;2023-02-12T15:51:32;8.10;99.90
53310;DHT22;39197;53.200;5.792;2023-02-12T15:54:04;8.10;99.90
53310;DHT22;39197;53.200;5.792;2023-02-12T15:56:31;8.10;99.90
53310;DHT22;39197;53.200;5.792;2023-02-12T15:58:59;8.00;99.90
53310;DHT22;39197;53.200;5.792;2023-02-12T16:01:33;8.00;99.90
53310;DHT22;39197;53.200;5.792;2023-02-12T16:04:02;8.00;99.90
53310;DHT22;39197;53.200;5.792;2023-02-12T16:06:31;8.10;99.90
53310;DHT22;39197;53.200;5.792;2023-02-12T16:09:04;8.10;99.90
53310;DHT22;39197;53.200;5.792;2023-02-12T16:11:31;8.10;99.90
53310;DHT22;39197;53.200;5.792;2023-02-12T16:16:45;8.00;99.90
53310;DHT22;39197;53.200;5.792;2023-02-12T16:19:31;8.00;99.90
53310;DHT22;39197;53.200;5.792;2023-02-12T16:22:06;8.00;99.90
53310;DHT22;39197;53.200;5.792;2023-02-12T16:24:38;7.90;99.90
53310;DHT22;39197;53.200;5.792;2023-02-12T16:27:28;7.90;99.90
53310;DHT22;39197;53.200;5.792;2023-02-12T16:29:58;7.80;99.90
53310;DHT22;39197;53.200;5.792;2023-02-12T16:32:50;7.80;99.90
53310;DHT22;39197;53.200;5.792;2023-02-12T16:37:50;7.80;99.90
53310;DHT22;39197;53.200;5.792;2023-02-12T16:40:20;7.70;99.90
53310;DHT22;39197;53.200;5.792;2023-02-12T16:47:56;7.70;99.90
53310;DHT22;39197;53.200;5.792;2023-02-12T16:50:26;7.60;99.90
53310;DHT22;39197;53.200;5.792;2023-02-12T16:53:02;7.60;99.90
53310;DHT22;39197;53.200;5.792;2023-02-12T16:55:29;7.70;99.90
53310;DHT22;39197;53.200;5.792;2023-02-12T16:57:54;7.70;99.90
53310;DHT22;39197;53.200;5.792;2023-02-12T17:00:20;7.70;99.90
53310;DHT22;39197;53.200;5.792;2023-02-12T17:02:47;7.60;99.90
53310;DHT22;39197;53.200;5.792;2023-02-12T17:05:14;7.50;99.90
53310;DHT22;39197;53.200;5.792;2023-02-12T17:07:41;7.50;99.90
53310;DHT22;39197;53.200;5.792;2023-02-12T17:10:12;7.50;99.90
53310;DHT22;39197;53.200;5.792;2023-02-12T17:12:48;7.50;99.90
53310;DHT22;39197;53.200;5.792;2023-02-12T17:15:24;7.50;99.90
53310;DHT22;39197;53.200;5.792;2023-02-12T17:17:52;7.60;99.90
53310;DHT22;39197;53.200;5.792;2023-02-12T17:20:18;7.60;99.90
53310;DHT22;39197;53.200;5.792;2023-02-12T17:22:49;7.60;99.90
53310;DHT22;39197;53.200;5.792;2023-02-12T17:25:15;7.60;99.90
53310;DHT22;39197;53.200;5.792;2023-02-12T17:27:40;7.60;99.90
53310;DHT22;39197;53.200;5.792;2023-02-12T17:30:07;7.60;99.90
53310;DHT22;39197;53.200;5.792;2023-02-12T17:32:33;7.60;99.90
53310;DHT22;39197;53.200;5.792;2023-02-12T17:34:58;7.50;99.90
53310;DHT22;39197;53.200;5.792;2023-02-12T17:37:24;7.50;99.90
53310;DHT22;39197;53.200;5.792;2023-02-12T17:39:50;7.40;99.90
53310;DHT22;39197;53.200;5.792;2023-02-12T17:42:16;7.40;99.90
53310;DHT22;39197;53.200;5.792;2023-02-12T17:44:42;7.40;99.90
53310;DHT22;39197;53.200;5.792;2023-02-12T17:47:08;7.40;99.90
53310;DHT22;39197;53.200;5.792;2023-02-12T17:49:34;7.40;99.90
53310;DHT22;39197;53.200;5.792;2023-02-12T17:52:00;7.40;99.90
53310;DHT22;39197;53.200;5.792;2023-02-12T17:54:26;7.40;99.90
53310;DHT22;39197;53.200;5.792;2023-02-12T17:56:52;7.40;99.90
53310;DHT22;39197;53.200;5.792;2023-02-12T17:59:17;7.40;99.90
53310;DHT22;39197;53.200;5.792;2023-02-12T18:01:43;7.30;99.90
53310;DHT22;39197;53.200;5.792;2023-02-12T18:04:10;7.30;99.90
53310;DHT22;39197;53.200;5.792;2023-02-12T18:06:36;7.20;99.90
53310;DHT22;39197;53.200;5.792;2023-02-12T18:09:02;7.20;99.90
53310;DHT22;39197;53.200;5.792;2023-02-12T18:11:28;7.30;99.90
53310;DHT22;39197;53.200;5.792;2023-02-12T18:13:55;7.30;99.90
53310;DHT22;39197;53.200;5.792;2023-02-12T18:16:22;7.30;99.90
53310;DHT22;39197;53.200;5.792;2023-02-12T18:18:48;7.20;99.90
53310;DHT22;39197;53.200;5.792;2023-02-12T18:21:14;7.20;99.90
53310;DHT22;39197;53.200;5.792;2023-02-12T18:23:41;7.30;99.90
53310;DHT22;39197;53.200;5.792;2023-02-12T18:26:09;7.30;99.90
53310;DHT22;39197;53.200;5.792;2023-02-12T18:28:35;7.20;99.90
53310;DHT22;39197;53.200;5.792;2023-02-12T18:31:02;7.20;99.90
53310;DHT22;39197;53.200;5.792;2023-02-12T18:33:28;7.20;99.90
53310;DHT22;39197;53.200;5.792;2023-02-12T18:36:02;7.20;99.90